Jackpot

Texas Poker Multi Jackpot System

Kini Telah hadir Jackpot SUPER ROYAL FLUSH

Kini Telah hadir Jackpot 2000 (khusus table VIP keatas).

Ikutilah global jackpot yang tersedia di system kami, dengan system jackpot terbaru dan pertama di indonesia, anda dapat membeli jackpot dengan harga 100 rupiah saja dan menangkan hadiahnya hingga puluhan juta rupiah.

Jackpot bukanlah suatu keharusan untuk dibeli, namun kami memberikan suatu fitur tambahan untuk member tercinta dari www.liburpoker.com.

Terdapat tiga pilihan harga jackpot yang bisa anda beli yaitu :100,500,1000 dan 2000(khusus table VIP Keatas) rupiah.

Hadiah dari Multi jackpot system www.liburpoker.com

  1. full house x 10 harga jackpot yang anda beli.
      (contoh:anda membeli 1000 maka:1000 X10 = 10.000)
  2. four of kind x 250 harga jackpot yang anda beli
      (contoh:anda membeli 1000 maka:1000 X250 = 250.000)
  3. Straight flush x 1200
      (contoh:anda membeli 1000 maka:1000 X1200 = 1.200.000)
  4. Royal flush x 10000 harga jackpot yang anda beli
      (contoh:anda membeli 1000 maka:1000 X10000 = 10.000.000)
  5. SUPER ROYAL FLUSH x 30000 harga jackpot yang anda beli
      (contoh:anda membeli 1000 maka:1000 X30000 = 30.000.000)

Kondisi kartu

  1. full house adalah kondisi kartu dimana kartu anda dan kartu tengah dengan total 7 kartu bisa mendapatkan nilai 5 kartu dengan kombinasi 1 tris(three of kind) dan 1 pair, contoh 3 kartu 10 dan 2 kartu 5
  2. Four of kind adalah kondisi kartu dimana kartu anda dan kartu tengah dengan total 7 kartu bisa mendapatkan nilai 5 kartu dengan kombinasi 4 kartu yang sama jumlah dan 1 kartu apapun juga contoh anda mendapatkan 4 buah kartu angka 3 dan 1 kartu apapun.
  3. Staright flush adalah kondisi kartu dimana kartu anda dan kartu tengah dengan total 7 kartu bisa mendapatkan nilai 5 kartu dengan kombinasi seri / staright dengan kembang yang sama contoh : urutan kartu dari angka 5, 6, 7, 8 , 9 10 dengan kembang yg sama misalnya as hati
  4. Royal flush adalah kondisi kartu dimana kartu anda dan kartu tengah dengan total 7 kartu bisa mendapatkan nilai 5 kartu dengan kombinasi seri / staright dengan kembang yang sama tetapi kartu tersebut haruslah dimulai dari 10. contoh 10, Queen, Jack, King dan aces dengan kembang yang sama
  5. Super Royal flush adalah kondisi kartu dimana Kedua kartu anda digabung dengan 3 kartu pertama meja haruslah royal flush. contoh kartu anda 10,Queen kembang sama dan 3 kartu pertama meja adalah Jack, King dan aces dengan kembang yang sama

Demikian adalah penjelasan dari Multi Jackpot www.liburpoker.com terima kasih dan selamat bermain salam hoki dari kami

Texas Poker Jackpot Winner

TOP SUPER ROYAL FLUSH
No.TanggalNamaPriceWin
120/10 15:40TANTEELISuper Royal flush6,000,000
220/10 13:12CIKIKA25Super Royal flush30,000,000
320/10 06:56K4P4X2016Super Royal flush3,000,000
420/10 02:43ALLLEASuper Royal flush15,000,000
519/10 21:20NIHON99Super Royal flush3,000,000
TOP ROYAL FLUSH
No.TanggalNamaPriceWin
120/10 17:36MADUBALA21Royal flush2,000,000
220/10 17:36BOSWORoyal flush20,000,000
320/10 17:15BORI9JTRoyal flush5,000,000
420/10 17:13CHOBOY89Royal flush1,000,000
520/10 17:09PENYOT20Royal flush1,000,000
TOP STRAIGHT FLUSH
No.TanggalNamaPriceWin
120/10 17:52S3K_K3RStraight Flush600,000
220/10 17:50JPNOWStraight Flush240,000
320/10 17:39DRAHADIANStraight Flush2,400,000
420/10 17:37FROKEN70Straight Flush240,000
520/10 17:35B4T1K99Straight Flush240,000
LATEST JACKPOT
No.TanggalNamaPriceWin
120/10 17:53ADELE66Full House1,000
220/10 17:53MARNITAFull House1,000
320/10 17:53NUNI01Full House1,000
420/10 17:53OPY4VYXXAVFull House2,000
520/10 17:53TUYULMUJURFull House2,000
620/10 17:53JP3SFull House500
720/10 17:53SYAH05Full House1,000
820/10 17:52SNI24963Full House2,000
920/10 17:52URANG279Full House5,000
1020/10 17:52EKOSEPTIYAFull House2,000
1120/10 17:52C1ND088Full House10,000
1220/10 17:52SELONG89Full House2,000
1320/10 17:52CABLA89Full House5,000
1420/10 17:52GORTAFull House5,000
1520/10 17:52BANWASLUFull House5,000
1620/10 17:52AXLYESOKT5Full House10,000
1720/10 17:52107UT4PLSFour Of A Kind50,000
1820/10 17:52ADRIAN84Full House5,000
1920/10 17:52IDNGSIN65Full House1,000
2020/10 17:52CRASHSYSFull House20,000
2120/10 17:52TJ1994Full House10,000
2220/10 17:52GUBLER30Full House1,000
2320/10 17:52MITROASU1Full House500
2420/10 17:52FELICIE8Four Of A Kind125,000
2520/10 17:52SANU1607Full House1,000
2620/10 17:52EFGS80Full House5,000
2720/10 17:52HOOOXXXFull House5,000
2820/10 17:52MHI7132Full House2,000
2920/10 17:52MIKMALFull House2,000
3020/10 17:52DF75D686Full House2,000
3120/10 17:52MABUK0007Full House1,000
3220/10 17:52UN_TUNG112Full House500
3320/10 17:52TUNGANGMALFour Of A Kind50,000
3420/10 17:52MARZUKKIFull House2,000
3520/10 17:52GOCO2Full House5,000
3620/10 17:52TEMPRAFour Of A Kind50,000
3720/10 17:52SURYOABAFull House5,000
3820/10 17:52AQUA227Full House5,000
3920/10 17:52ROYALL212Full House1,000
4020/10 17:52CIEMANAKFull House2,000
4120/10 17:52ZHI9Full House5,000
4220/10 17:52BERH4S1LFull House2,000
4320/10 17:52GX997CWLGXFull House10,000
4420/10 17:52BOCIN0885Full House2,000
4520/10 17:52NHFIBJ2UX9Full House10,000
4620/10 17:52BLACKMAMBFull House5,000
4720/10 17:52SBOO303Full House2,000
4820/10 17:52SCP66Full House2,000
4920/10 17:52SAMIN0000Full House10,000
5020/10 17:52D4159163Full House5,000

Domino Multi Jackpot System

Ikutilah global jackpot yang tersedia di system kami, dengan system jackpot terbaru dan pertama di indonesia, anda dapat membeli jackpot dengan harga 100 rupiah saja dan menangkan hadiahnya hingga puluhan juta rupiah.

Jackpot bukanlah suatu keharusan untuk dibeli, namun kami memberikan suatu fitur tambahan untuk member tercinta dari www.liburpoker.com.

Terdapat tiga pilihan harga jackpot yang bisa anda beli yaitu :100,500 dan 1000 rupiah.

Hadiah dari Multi jackpot system www.liburpoker.com

  1. Murni Kecil x 50 harga jackpot yang anda beli.
      (contoh:anda membeli 1000 maka:1000 X 50 = 50.000)
  2. Murni Besar x 50 harga jackpot yang anda beli
      (contoh:anda membeli 1000 maka:1000 X 50 = 50.000)
  3. BALAK x 100 harga jackpot yang anda beli
      (contoh:anda membeli 1000 maka:1000 X 100 = 100.000)
  4. ENAM DEWA x 6666 harga jackpot yang anda beli
      (contoh:anda membeli 1000 maka:1000 X 6666 = 6.666.000)

Demikian adalah penjelasan dari Multi Jackpot www.liburpoker.com terima kasih dan selamat bermain salam hoki dari kami

Domino Jackpot Winner

TOP ENAM DEWA
No.TanggalNamaPriceWin
120/10 17:51DEROY54murni enam666,600
220/10 17:47ANGEL3Mmurni enam3,333,000
320/10 17:13CLASSE29murni enam666,600
420/10 15:26ASUNARYOUmurni enam3,333,000
520/10 15:06TWO1995murni enam6,666,000
TOP BALAK
No.TanggalNamaPriceWin
120/10 17:53HAMSYONK00balak50,000
220/10 17:50FLAY9balak100,000
320/10 17:48D2C42D56balak10,000
420/10 17:47BJR7DENFGBbalak50,000
520/10 17:46H4IK4L20balak10,000
LATEST JACKPOT
No.TanggalNamaPriceWin
120/10 17:53HAMSYONK00balak50,000
220/10 17:52KOC46murni besar50,000
320/10 17:52XEMEX77murni kecil25,000
420/10 17:51N23LEEERmurni besar25,000
520/10 17:51DEXDOANK82murni kecil50,000
620/10 17:51DEROY54murni enam666,600
720/10 17:50YONO_11murni kecil5,000
820/10 17:50LIBERCAPmurni kecil50,000
920/10 17:50FLAY9balak100,000
1020/10 17:49KPN72murni besar50,000
1120/10 17:48D2C42D56balak10,000
1220/10 17:48CILAKAYAmurni kecil50,000
1320/10 17:47BJR7DENFGBbalak50,000
1420/10 17:47SKALISmurni kecil25,000
1520/10 17:47ANGEL3Mmurni enam3,333,000
1620/10 17:46H4IK4L20balak10,000
1720/10 17:45AKAA47balak50,000
1820/10 17:45HUNTER_XXmurni kecil50,000
1920/10 17:45JBARUZZmurni besar25,000
2020/10 17:44OIM6666balak100,000
2120/10 17:44DING96lucky9950,000
2220/10 17:41SKALISmurni besar25,000
2320/10 17:41QQUNTUNGQQmurni besar50,000
2420/10 17:41KUT33NGmurni besar5,000
2520/10 17:41DARGUSmurni besar50,000
2620/10 17:41KONGKRITEmurni besar25,000
2720/10 17:40LEMONIPI77murni kecil5,000
2820/10 17:40SIBOLANGXMmurni kecil50,000
2920/10 17:40QQUNTUNGQQmurni besar50,000
3020/10 17:40D2EF896Abalak100,000
3120/10 17:40BEKMARJUmurni besar5,000
3220/10 17:40WINDSWEPmurni kecil50,000
3320/10 17:39KARINI66murni besar50,000
3420/10 17:38PAKGIRI99murni besar50,000
3520/10 17:37BKR178murni kecil25,000
3620/10 17:37AKUM1murni besar25,000
3720/10 17:37ABU877balak50,000
3820/10 17:37P4C1L0N9murni kecil50,000
3920/10 17:37HANGLAYAmurni kecil50,000
4020/10 17:36RARASASAbalak100,000
4120/10 17:36MBRODOL99balak50,000
4220/10 17:36ARAY99CHAOmurni kecil50,000
4320/10 17:36PIRAIBAbalak100,000
4420/10 17:36SHORTBODYmurni kecil25,000
4520/10 17:35DAUX_Cmurni besar50,000
4620/10 17:35CEZYmurni kecil5,000
4720/10 17:34YUYU13murni besar5,000
4820/10 17:34SST9WIES0Fmurni kecil50,000
4920/10 17:34P4C1L0N9lucky99200,000
5020/10 17:33WIRRO_212balak50,000

Ceme Multi Jackpot System

Jackpot dilihat dari gabungan kartu pemain dengan kartu bandar. Bandar harus membeli jackpot sebanyak jumlah player yang sedang duduk. Sebagai contoh bila terdapat 3 pemain duduk bermain, dan bandar memutuskan untuk membeli jackpot Rp 1.000, maka pada periode tersebut bandar akan membeli jackpot sebanyak 3xRp1.000 = Rp3.000.

Jackpot bukanlah suatu keharusan untuk dibeli, namun kami memberikan suatu fitur tambahan untuk member tercinta dari www.liburpoker.com.

Terdapat tiga pilihan harga jackpot yang bisa anda beli yaitu :100,500 dan 1000 rupiah.

Hadiah dari Multi jackpot system www.liburpoker.com

  1. Murni Kecil x 50 harga jackpot yang anda beli.
      (contoh:anda membeli 1000 maka:1000 X 50 = 50.000)
  2. Murni Besar x 50 harga jackpot yang anda beli
      (contoh:anda membeli 1000 maka:1000 X 50 = 50.000)
  3. BALAK x 200 harga jackpot yang anda beli
      (contoh:anda membeli 1000 maka:1000 X 200 = 200.000)
  4. ENAM DEWA x 6666 harga jackpot yang anda beli
      (contoh:anda membeli 1000 maka:1000 X 6666 = 6.666.000)

Demikian adalah penjelasan dari Multi Jackpot www.liburpoker.com terima kasih dan selamat bermain salam hoki dari kami

Ceme Jackpot Winner

TOP ENAM DEWA
No.TanggalNamaPriceWin
120/10 17:40DONKRAYmurni enam666,600
220/10 17:29CUPCUPANGmurni enam6,666,000
320/10 17:29MAFIRmurni enam3,333,000
420/10 17:25RTZ37murni enam666,600
520/10 17:06MANGGLENG8murni enam6,666,000
TOP BALAK
No.TanggalNamaPriceWin
120/10 17:52JUNEDI28balak200,000
220/10 17:52MONYET2balak200,000
320/10 17:52MONYET2balak200,000
420/10 17:51KINGKATROKbalak100,000
520/10 17:51DWBTREND44balak20,000
LATEST JACKPOT
No.TanggalNamaPriceWin
120/10 17:53PAPLOU303murni kecil25,000
220/10 17:52JUNEDI28balak200,000
320/10 17:52BDJDDOBSGmurni besar50,000
420/10 17:52EKOY07murni besar25,000
520/10 17:52ICEDAmurni kecil50,000
620/10 17:52LEGIT222murni kecil50,000
720/10 17:52BONGK4R888murni besar5,000
820/10 17:52GEPPENG8murni kecil50,000
920/10 17:52KAMIL887murni kecil5,000
1020/10 17:52MONYET2balak200,000
1120/10 17:52MONYET2murni kecil50,000
1220/10 17:52KOYAN79murni kecil50,000
1320/10 17:52MONYET2balak200,000
1420/10 17:51ARI9889murni besar50,000
1520/10 17:51UDIN171murni kecil50,000
1620/10 17:51KINGKATROKbalak100,000
1720/10 17:51DWBTREND44balak20,000
1820/10 17:51MENAJINGGAbalak200,000
1920/10 17:51JUNEDI28balak200,000
2020/10 17:51JUNEDI28murni kecil50,000
2120/10 17:50HERNIAWATImurni kecil50,000
2220/10 17:50KIKIIE88murni kecil50,000
2320/10 17:50AMBONBONYmurni kecil25,000
2420/10 17:50BEGUNDALA7murni kecil5,000
2520/10 17:50MONYET2balak200,000
2620/10 17:50NAP186murni besar50,000
2720/10 17:50BANDRA63murni besar50,000
2820/10 17:50BAWA375murni kecil50,000
2920/10 17:50CUPCUPANGmurni besar50,000
3020/10 17:50HERNIAWATImurni kecil50,000
3120/10 17:50ENCA10murni kecil25,000
3220/10 17:50SEMOT1922murni kecil50,000
3320/10 17:50NICOLA4646murni kecil5,000
3420/10 17:50SAYANGPK12murni kecil50,000
3520/10 17:50KINGKATROKmurni besar25,000
3620/10 17:50KINGKATROKmurni besar25,000
3720/10 17:50ATMOJO888murni besar5,000
3820/10 17:50SITAR01murni kecil50,000
3920/10 17:49POPI82balak20,000
4020/10 17:49S0D01771murni kecil50,000
4120/10 17:49KILUKQQmurni besar50,000
4220/10 17:49TOMBUS2murni kecil25,000
4320/10 17:49DIK4789murni kecil50,000
4420/10 17:49PARAJAKI56murni besar50,000
4520/10 17:49MYS23balak20,000
4620/10 17:49NAGAMAS909murni kecil50,000
4720/10 17:49ONDOL81murni kecil50,000
4820/10 17:49SAKIEM90murni kecil25,000
4920/10 17:49MAJIDTORAmurni kecil5,000
5020/10 17:49DYFUKA91murni kecil50,000